createdAt,value
2018-10-18T00:00:50.675Z,8.90
2018-10-18T00:03:19.585Z,8.90
2018-10-18T00:05:48.273Z,8.90
2018-10-18T00:08:17.877Z,8.90
2018-10-18T00:10:46.800Z,8.80
2018-10-18T00:13:16.404Z,8.80
2018-10-18T00:15:46.184Z,8.70
2018-10-18T00:18:15.638Z,8.70
2018-10-18T00:20:44.284Z,8.60
2018-10-18T00:23:13.204Z,8.60
2018-10-18T00:25:41.897Z,8.70
2018-10-18T00:28:10.684Z,8.70
2018-10-18T00:30:40.469Z,8.70
2018-10-18T00:33:09.057Z,8.60
2018-10-18T00:35:37.760Z,8.60
2018-10-18T00:38:06.234Z,8.60
2018-10-18T00:40:34.461Z,8.70
2018-10-18T00:43:03.628Z,8.80
2018-10-18T00:45:32.128Z,8.90
2018-10-18T00:48:01.210Z,8.90
2018-10-18T00:50:29.435Z,8.80
2018-10-18T00:52:58.016Z,8.80
2018-10-18T00:55:26.386Z,8.80
2018-10-18T00:57:55.662Z,8.80
2018-10-18T01:00:24.241Z,8.80
2018-10-18T01:02:52.540Z,8.70
2018-10-18T02:39:38.297Z,8.20
2018-10-18T02:42:07.975Z,8.10
2018-10-18T02:44:36.427Z,8.00
2018-10-18T02:47:05.119Z,7.90
2018-10-18T02:49:33.920Z,7.80
2018-10-18T02:52:02.276Z,7.80
2018-10-18T02:54:31.131Z,7.80
2018-10-18T02:56:59.649Z,7.80
2018-10-18T02:59:28.855Z,7.90
2018-10-18T03:01:57.119Z,7.90
2018-10-18T03:04:26.727Z,7.80
2018-10-18T03:06:55.300Z,7.80
2018-10-18T03:09:23.543Z,7.80
2018-10-18T03:11:51.985Z,7.80
2018-10-18T03:14:20.318Z,7.80
2018-10-18T03:16:48.923Z,7.80
2018-10-18T03:19:17.583Z,7.80
2018-10-18T03:21:45.838Z,7.80
2018-10-18T03:24:14.770Z,7.80
2018-10-18T03:26:43.307Z,7.80
2018-10-18T03:29:11.547Z,7.70
2018-10-18T03:31:40.128Z,7.70
2018-10-18T03:34:08.611Z,7.80
2018-10-18T03:36:37.125Z,7.80
2018-10-18T03:39:08.365Z,7.80
2018-10-18T03:41:36.693Z,7.80
2018-10-18T03:44:05.478Z,7.80
2018-10-18T03:46:34.119Z,7.80
2018-10-18T03:49:04.556Z,7.80
2018-10-18T03:51:33.081Z,7.70
2018-10-18T03:54:01.603Z,7.70
2018-10-18T03:56:30.114Z,7.60
2018-10-18T03:58:58.458Z,7.60
2018-10-18T04:01:26.923Z,7.60
2018-10-18T04:03:55.575Z,7.60
2018-10-18T04:06:24.095Z,7.60
2018-10-18T04:08:52.614Z,7.60
2018-10-18T04:11:20.899Z,7.60
2018-10-18T04:13:49.242Z,7.50
2018-10-18T04:16:18.607Z,7.60
2018-10-18T04:18:47.058Z,7.60
2018-10-18T04:21:15.275Z,7.50
2018-10-18T04:23:43.554Z,7.50
2018-10-18T04:26:11.793Z,7.50
2018-10-18T04:28:41.037Z,7.50
2018-10-18T04:31:09.454Z,7.40
2018-10-18T04:33:37.660Z,7.40
2018-10-18T04:36:06.099Z,7.30
2018-10-18T04:38:34.446Z,7.20
2018-10-18T04:41:02.679Z,7.20
2018-10-18T04:43:31.140Z,7.10
2018-10-18T04:45:59.760Z,7.00
2018-10-18T04:48:28.268Z,7.00
2018-10-18T04:50:56.823Z,6.90
2018-10-18T04:53:25.151Z,6.90
2018-10-18T04:55:53.806Z,6.80
2018-10-18T04:58:22.331Z,6.80
2018-10-18T05:00:51.714Z,6.80
2018-10-18T05:03:20.179Z,6.80
2018-10-18T05:05:52.796Z,6.80
2018-10-18T05:08:22.775Z,6.80
2018-10-18T05:10:51.058Z,6.80
2018-10-18T05:13:19.789Z,6.70
2018-10-18T05:15:48.244Z,6.70
2018-10-18T05:18:16.794Z,6.80
2018-10-18T05:20:45.123Z,6.80
2018-10-18T05:23:13.362Z,6.80
2018-10-18T05:25:41.881Z,6.80
2018-10-18T05:28:10.112Z,6.80
2018-10-18T05:30:38.463Z,6.80
2018-10-18T05:33:06.739Z,6.80
2018-10-18T05:35:35.240Z,6.80
2018-10-18T05:38:03.593Z,6.80
2018-10-18T05:40:31.981Z,6.70
2018-10-18T05:43:00.383Z,6.70
2018-10-18T05:45:28.583Z,6.70
2018-10-18T05:47:56.830Z,6.70
2018-10-18T05:50:25.050Z,6.70
2018-10-18T05:52:53.369Z,6.70
2018-10-18T05:55:21.547Z,6.60
2018-10-18T05:57:49.998Z,6.60
2018-10-18T06:00:18.961Z,6.60
2018-10-18T06:02:47.554Z,6.60
2018-10-18T06:05:17.475Z,6.60
2018-10-18T06:07:45.970Z,6.70
2018-10-18T06:10:26.389Z,6.70
2018-10-18T06:12:54.825Z,6.80
2018-10-18T06:15:23.511Z,6.90
2018-10-18T06:17:51.711Z,7.00
2018-10-18T06:20:20.726Z,7.00
2018-10-18T06:22:49.169Z,7.10
2018-10-18T06:25:18.395Z,7.20
2018-10-18T06:27:47.250Z,7.30
2018-10-18T06:30:16.487Z,7.40
2018-10-18T06:32:45.189Z,7.50
2018-10-18T06:35:15.129Z,7.70
2018-10-18T06:37:43.449Z,7.80
2018-10-18T06:40:16.560Z,7.90
2018-10-18T06:42:44.796Z,7.90
2018-10-18T06:45:15.599Z,7.90
2018-10-18T06:47:44.377Z,8.00
2018-10-18T06:50:13.850Z,8.00
2018-10-18T06:52:42.097Z,8.00
2018-10-18T06:55:10.587Z,8.00
2018-10-18T06:57:39.522Z,8.00
2018-10-18T07:00:12.336Z,8.10
2018-10-18T07:02:40.974Z,8.10
2018-10-18T07:05:10.887Z,8.20
2018-10-18T07:07:39.175Z,8.30
2018-10-18T07:10:07.830Z,8.40
2018-10-18T07:12:36.911Z,8.60
2018-10-18T07:15:06.383Z,8.70
2018-10-18T07:17:34.671Z,8.90
2018-10-18T07:20:03.018Z,9.10
2018-10-18T07:22:31.199Z,9.20
2018-10-18T07:24:59.491Z,9.30
2018-10-18T07:27:27.674Z,9.30
2018-10-18T07:29:56.150Z,9.50
2018-10-18T07:32:24.820Z,9.60
2018-10-18T07:34:53.024Z,9.80
2018-10-18T07:37:21.858Z,9.90
2018-10-18T07:39:51.219Z,10.10
2018-10-18T07:42:19.674Z,10.30
2018-10-18T07:44:48.030Z,10.50
2018-10-18T07:47:16.460Z,10.70
2018-10-18T07:49:44.886Z,11.00
2018-10-18T07:52:13.120Z,11.20
2018-10-18T07:54:41.424Z,11.40
2018-10-18T07:57:09.976Z,11.50
2018-10-18T07:59:38.207Z,11.70
2018-10-18T08:02:06.726Z,11.80
2018-10-18T08:04:35.190Z,12.00
2018-10-18T08:07:04.003Z,12.10
2018-10-18T08:09:32.303Z,12.10
2018-10-18T08:12:00.531Z,12.20
2018-10-18T08:14:29.031Z,12.40
2018-10-18T08:16:57.299Z,12.40
2018-10-18T08:19:25.572Z,12.30
2018-10-18T08:21:53.787Z,12.40
2018-10-18T08:24:21.988Z,12.40
2018-10-18T08:26:50.253Z,12.50
2018-10-18T08:29:18.622Z,12.50
2018-10-18T08:31:47.099Z,12.50
2018-10-18T08:34:15.335Z,12.60
2018-10-18T08:36:43.699Z,12.70
2018-10-18T08:39:12.293Z,12.90
2018-10-18T08:41:40.675Z,13.10
2018-10-18T08:44:08.978Z,13.40
2018-10-18T08:46:37.195Z,13.50
2018-10-18T08:49:05.839Z,13.60
2018-10-18T08:51:34.106Z,13.60
2018-10-18T08:54:02.396Z,13.60
2018-10-18T08:56:30.892Z,13.70
2018-10-18T08:58:59.102Z,13.70
2018-10-18T09:01:27.363Z,13.80
2018-10-18T09:03:55.779Z,13.90
2018-10-18T09:06:24.157Z,14.10
2018-10-18T09:08:52.375Z,14.10
2018-10-18T09:11:20.551Z,14.00
2018-10-18T09:13:48.999Z,14.10
2018-10-18T09:16:17.335Z,14.00
2018-10-18T09:18:45.790Z,14.10
2018-10-18T09:21:13.979Z,14.30
2018-10-18T09:23:42.243Z,14.40
2018-10-18T09:26:10.511Z,14.20
2018-10-18T09:28:38.858Z,14.20
2018-10-18T09:31:07.130Z,14.20
2018-10-18T09:33:35.339Z,14.10
2018-10-18T09:36:03.673Z,14.30
2018-10-18T09:38:32.829Z,14.30
2018-10-18T09:41:01.001Z,14.30
2018-10-18T09:43:29.246Z,14.30
2018-10-18T09:45:57.757Z,14.60
2018-10-18T09:48:26.099Z,14.70
2018-10-18T09:50:54.348Z,14.90
2018-10-18T09:53:22.748Z,14.90
2018-10-18T09:55:51.093Z,15.20
2018-10-18T09:58:19.371Z,15.50
2018-10-18T10:00:53.119Z,15.80
2018-10-18T10:03:22.252Z,16.10
2018-10-18T10:05:50.523Z,15.90
2018-10-18T10:08:18.714Z,16.20
2018-10-18T10:10:47.035Z,15.80
2018-10-18T10:13:15.554Z,15.90
2018-10-18T10:15:43.751Z,16.00
2018-10-18T10:18:12.220Z,16.30
2018-10-18T10:20:40.515Z,16.20
2018-10-18T10:23:08.767Z,16.50
2018-10-18T10:25:37.112Z,16.50
2018-10-18T10:28:05.349Z,16.70
2018-10-18T10:30:33.682Z,17.00
2018-10-18T10:33:02.068Z,16.90
2018-10-18T10:35:30.235Z,16.60
2018-10-18T10:37:58.488Z,16.60
2018-10-18T10:40:26.671Z,16.60
2018-10-18T10:42:54.964Z,16.90
2018-10-18T10:45:23.470Z,17.10
2018-10-18T10:47:51.982Z,17.20
2018-10-18T10:50:20.269Z,17.30
2018-10-18T10:52:48.449Z,17.40
2018-10-18T10:55:16.788Z,17.30
2018-10-18T10:57:45.002Z,17.40
2018-10-18T11:00:15.798Z,17.40
2018-10-18T11:02:43.951Z,17.50
2018-10-18T11:05:12.927Z,17.60
2018-10-18T11:07:41.195Z,17.70
2018-10-18T11:10:09.448Z,17.70
2018-10-18T11:12:37.744Z,17.80
2018-10-18T11:15:06.085Z,17.70
2018-10-18T11:17:34.288Z,17.80
2018-10-18T11:20:02.866Z,17.70
2018-10-18T11:22:31.083Z,17.80
2018-10-18T11:24:59.321Z,17.80
2018-10-18T11:27:27.519Z,17.90
2018-10-18T11:29:55.931Z,17.80
2018-10-18T11:32:24.202Z,17.80
2018-10-18T11:34:52.560Z,17.80
2018-10-18T11:37:21.007Z,17.90
2018-10-18T11:39:49.453Z,17.90
2018-10-18T11:42:17.948Z,17.90
2018-10-18T11:44:46.191Z,17.80
2018-10-18T11:47:14.422Z,18.00
2018-10-18T11:49:42.776Z,18.20
2018-10-18T11:52:11.374Z,18.30
2018-10-18T11:54:39.624Z,18.30
2018-10-18T11:57:08.060Z,18.30
2018-10-18T11:59:36.334Z,18.40
2018-10-18T12:02:05.138Z,18.50
2018-10-18T12:04:33.436Z,18.40
2018-10-18T12:07:01.700Z,18.50
2018-10-18T12:09:29.942Z,18.50
2018-10-18T12:11:58.248Z,18.60
2018-10-18T12:14:26.539Z,18.50
2018-10-18T12:16:54.878Z,18.50
2018-10-18T12:19:23.163Z,18.60
2018-10-18T12:21:51.513Z,18.60
2018-10-18T12:24:19.851Z,18.70
2018-10-18T12:26:48.306Z,18.60
2018-10-18T12:29:16.615Z,18.40
2018-10-18T12:31:44.851Z,18.50
2018-10-18T12:34:13.084Z,18.40
2018-10-18T12:36:41.482Z,18.50
2018-10-18T12:39:10.251Z,18.60
2018-10-18T12:41:38.600Z,18.40
2018-10-18T12:44:06.782Z,18.40
2018-10-18T12:46:35.022Z,18.40
2018-10-18T12:49:03.230Z,18.50
2018-10-18T12:51:31.428Z,18.40
2018-10-18T12:53:59.965Z,18.50
2018-10-18T12:56:28.243Z,18.60
2018-10-18T12:58:56.497Z,18.60
2018-10-18T13:01:24.675Z,18.60
2018-10-18T13:03:53.997Z,18.50
2018-10-18T13:06:22.232Z,18.60
2018-10-18T13:08:50.510Z,18.50
2018-10-18T13:11:18.735Z,18.50
2018-10-18T13:13:47.391Z,18.50
2018-10-18T13:16:15.666Z,18.40
2018-10-18T13:18:43.958Z,18.50
2018-10-18T13:21:12.423Z,18.40
2018-10-18T13:23:40.732Z,18.60
2018-10-18T13:26:08.987Z,18.50
2018-10-18T13:28:37.156Z,18.40
2018-10-18T13:31:05.634Z,18.40
2018-10-18T13:33:33.892Z,18.60
2018-10-18T13:36:02.223Z,18.50
2018-10-18T13:38:30.474Z,18.50
2018-10-18T13:40:58.837Z,18.40
2018-10-18T13:43:27.108Z,18.40
2018-10-18T13:45:56.539Z,18.50
2018-10-18T13:48:24.823Z,18.50
2018-10-18T13:50:53.003Z,18.50
2018-10-18T13:53:21.540Z,18.60
2018-10-18T13:55:49.796Z,18.60
2018-10-18T13:58:18.281Z,18.70
2018-10-18T14:00:46.654Z,18.60
2018-10-18T14:03:14.976Z,18.50
2018-10-18T14:05:43.652Z,18.60
2018-10-18T14:08:11.925Z,18.70
2018-10-18T14:10:40.195Z,18.70
2018-10-18T14:13:08.430Z,18.80
2018-10-18T14:15:37.255Z,18.70
2018-10-18T14:18:05.468Z,18.70
2018-10-18T14:20:33.676Z,18.70
2018-10-18T14:23:01.998Z,18.60
2018-10-18T14:25:30.470Z,18.60
2018-10-18T14:27:58.675Z,18.60
2018-10-18T14:30:27.098Z,18.70
2018-10-18T14:32:55.237Z,18.70
2018-10-18T14:35:24.276Z,18.60
2018-10-18T14:37:52.527Z,18.60
2018-10-18T14:40:20.723Z,18.50
2018-10-18T14:42:49.258Z,18.50
2018-10-18T14:45:17.682Z,18.60
2018-10-18T14:47:46.061Z,18.40
2018-10-18T14:50:14.706Z,18.40
2018-10-18T14:52:43.331Z,18.30
2018-10-18T14:55:11.664Z,18.40
2018-10-18T14:57:40.297Z,18.40
2018-10-18T15:00:10.049Z,18.40
2018-10-18T15:02:38.317Z,18.30
2018-10-18T15:05:08.188Z,18.30
2018-10-18T15:07:36.696Z,18.30
2018-10-18T15:10:06.444Z,18.30
2018-10-18T15:12:35.038Z,18.20
2018-10-18T15:15:03.187Z,18.20
2018-10-18T15:17:31.496Z,18.20
2018-10-18T15:19:59.885Z,18.20
2018-10-18T15:22:28.567Z,18.10
2018-10-18T15:24:57.018Z,18.10
2018-10-18T15:27:25.771Z,18.00
2018-10-18T15:29:54.008Z,18.00
2018-10-18T15:32:22.291Z,17.90
2018-10-18T15:34:50.611Z,17.90
2018-10-18T15:37:18.943Z,17.90
2018-10-18T15:39:47.643Z,17.80
2018-10-18T15:42:15.927Z,17.70
2018-10-18T15:44:44.227Z,17.70
2018-10-18T15:47:12.567Z,17.60
2018-10-18T15:49:40.779Z,17.60
2018-10-18T15:52:08.983Z,17.50
2018-10-18T15:54:37.300Z,17.40
2018-10-18T15:57:05.759Z,17.40
2018-10-18T15:59:34.035Z,17.30
2018-10-18T16:02:02.263Z,17.30
2018-10-18T16:04:30.780Z,17.20
2018-10-18T16:06:59.079Z,17.10
2018-10-18T16:09:27.456Z,17.00
2018-10-18T16:11:55.743Z,17.00
2018-10-18T16:14:24.043Z,16.90
2018-10-18T16:16:52.354Z,16.90
2018-10-18T16:19:20.577Z,16.80
2018-10-18T16:21:48.840Z,16.70
2018-10-18T16:24:17.078Z,16.60
2018-10-18T16:26:45.280Z,16.60
2018-10-18T16:29:13.721Z,16.50
2018-10-18T16:31:41.922Z,16.40
2018-10-18T16:34:10.119Z,16.40
2018-10-18T16:36:38.336Z,16.30
2018-10-18T16:39:08.676Z,16.20
2018-10-18T16:41:37.111Z,16.20
2018-10-18T16:44:05.659Z,16.20
2018-10-18T16:46:34.062Z,16.20
2018-10-18T16:49:02.568Z,16.10
2018-10-18T16:51:31.176Z,16.00
2018-10-18T16:53:59.951Z,15.90
2018-10-18T16:56:28.130Z,15.80
2018-10-18T16:58:56.386Z,15.80
2018-10-18T17:01:25.983Z,15.70
2018-10-18T17:03:54.331Z,15.80
2018-10-18T17:06:23.003Z,15.70
2018-10-18T17:08:51.163Z,15.60
2018-10-18T17:11:19.885Z,15.60
2018-10-18T17:13:48.623Z,15.50
2018-10-18T17:16:16.984Z,15.40
2018-10-18T17:18:45.407Z,15.30
2018-10-18T17:21:14.039Z,15.30
2018-10-18T17:23:42.639Z,15.20
2018-10-18T17:26:11.305Z,15.10
2018-10-18T17:28:40.064Z,15.10
2018-10-18T17:31:09.351Z,15.00
2018-10-18T17:33:37.599Z,15.00
2018-10-18T17:36:06.850Z,14.90
2018-10-18T17:38:35.142Z,14.80
2018-10-18T17:41:03.628Z,14.70
2018-10-18T17:43:31.948Z,14.60
2018-10-18T17:46:00.270Z,14.50
2018-10-18T17:48:28.826Z,14.40
2018-10-18T17:50:57.535Z,14.40
2018-10-18T17:53:25.809Z,14.40
2018-10-18T17:55:54.323Z,14.30
2018-10-18T17:58:23.492Z,14.20
2018-10-18T18:00:52.862Z,14.20
2018-10-18T18:03:21.559Z,14.20
2018-10-18T18:05:50.815Z,14.20
2018-10-18T18:08:20.365Z,14.20
2018-10-18T18:10:50.017Z,14.10
2018-10-18T18:13:19.330Z,14.10
2018-10-18T18:15:48.040Z,14.20
2018-10-18T18:18:16.713Z,14.20
2018-10-18T18:20:45.413Z,14.20
2018-10-18T18:23:14.098Z,14.10
2018-10-18T18:25:42.964Z,14.10
2018-10-18T18:28:12.044Z,14.00
2018-10-18T18:30:40.648Z,14.00
2018-10-18T18:33:09.580Z,14.10
2018-10-18T18:35:37.899Z,14.20
2018-10-18T18:38:06.914Z,14.20
2018-10-18T18:40:35.543Z,14.20
2018-10-18T18:43:04.663Z,14.10
2018-10-18T18:45:36.130Z,14.10
2018-10-18T18:48:05.747Z,14.00
2018-10-18T18:50:34.396Z,13.90
2018-10-18T18:53:03.190Z,13.80
2018-10-18T18:55:31.696Z,13.80
2018-10-18T18:58:00.191Z,13.70
2018-10-18T19:00:28.459Z,13.50
2018-10-18T19:02:56.784Z,13.50
2018-10-18T19:05:25.402Z,13.50
2018-10-18T19:07:54.420Z,13.40
2018-10-18T19:10:23.727Z,13.30
2018-10-18T19:12:52.756Z,13.20
2018-10-18T19:15:21.226Z,13.10
2018-10-18T19:17:49.576Z,13.10
2018-10-18T19:20:17.823Z,13.00
2018-10-18T19:22:46.342Z,13.00
2018-10-18T19:25:15.259Z,12.90
2018-10-18T19:27:43.542Z,12.80
2018-10-18T19:30:12.519Z,12.80
2018-10-18T19:32:41.201Z,12.60
2018-10-18T19:35:09.433Z,12.60
2018-10-18T19:37:38.772Z,12.60
2018-10-18T19:40:07.943Z,12.60
2018-10-18T19:42:36.178Z,12.50
2018-10-18T19:45:04.883Z,12.50
2018-10-18T19:47:34.271Z,12.30
2018-10-18T19:50:02.600Z,12.00
2018-10-18T19:52:31.376Z,11.70
2018-10-18T19:54:59.636Z,11.40
2018-10-18T19:57:29.290Z,11.20
2018-10-18T19:59:57.702Z,11.10
2018-10-18T20:02:26.179Z,11.00
2018-10-18T20:04:54.730Z,10.90
2018-10-18T20:07:23.919Z,10.70
2018-10-18T20:09:52.609Z,10.80
2018-10-18T20:12:21.142Z,10.70
2018-10-18T20:14:51.315Z,10.70
2018-10-18T20:17:19.727Z,10.60
2018-10-18T20:19:47.962Z,10.50
2018-10-18T20:22:16.262Z,10.50
2018-10-18T20:24:44.968Z,10.50
2018-10-18T20:27:13.975Z,10.40
2018-10-18T20:29:42.367Z,10.50
2018-10-18T20:32:10.689Z,10.70
2018-10-18T20:34:38.939Z,10.60
2018-10-18T20:37:07.310Z,10.40
2018-10-18T20:39:37.216Z,10.30
2018-10-18T20:42:05.754Z,10.20
2018-10-18T20:44:34.016Z,10.20
2018-10-18T20:47:02.327Z,10.00
2018-10-18T20:49:30.906Z,9.80
2018-10-18T20:52:00.227Z,9.70
2018-10-18T20:54:29.474Z,9.70
2018-10-18T20:56:57.796Z,9.60
2018-10-18T20:59:26.014Z,9.50
2018-10-18T21:01:54.604Z,9.50
2018-10-18T21:04:22.962Z,9.50
2018-10-18T21:06:51.915Z,9.50
2018-10-18T21:09:21.101Z,9.50
2018-10-18T21:11:49.451Z,9.50
2018-10-18T21:14:19.135Z,9.50
2018-10-18T21:16:47.698Z,9.50
2018-10-18T21:19:15.965Z,9.40
2018-10-18T21:21:44.352Z,9.40
2018-10-18T21:24:12.647Z,9.50
2018-10-18T21:26:41.284Z,9.60
2018-10-18T21:29:10.047Z,9.70
2018-10-18T21:31:39.268Z,9.60
2018-10-18T21:34:07.971Z,9.60
2018-10-18T21:36:36.230Z,9.40
2018-10-18T21:39:06.440Z,9.30
2018-10-18T21:41:36.353Z,9.30
2018-10-18T21:44:05.929Z,9.30
2018-10-18T21:46:34.439Z,9.30
2018-10-18T21:49:03.564Z,9.10
2018-10-18T21:51:31.778Z,9.00
2018-10-18T21:54:00.423Z,9.00
2018-10-18T21:56:28.671Z,9.00
2018-10-18T21:58:56.953Z,9.00
2018-10-18T22:01:25.346Z,9.00
2018-10-18T22:03:54.167Z,9.00
2018-10-18T22:06:22.507Z,8.90
2018-10-18T22:08:51.110Z,9.00
2018-10-18T22:11:20.334Z,8.90
2018-10-18T22:13:48.622Z,9.00
2018-10-18T22:16:17.079Z,8.90
2018-10-18T22:18:45.505Z,8.90
2018-10-18T22:21:14.166Z,8.80
2018-10-18T22:23:43.304Z,8.80
2018-10-18T22:26:13.056Z,8.80
2018-10-18T22:28:41.343Z,8.70
2018-10-18T22:31:09.991Z,8.70
2018-10-18T22:33:38.724Z,8.70
2018-10-18T22:36:08.674Z,8.60
2018-10-18T22:38:37.508Z,8.50
2018-10-18T22:41:08.324Z,8.50
2018-10-18T22:43:37.225Z,8.40
2018-10-18T22:46:06.120Z,8.30
2018-10-18T22:48:34.728Z,8.20
2018-10-18T22:51:04.429Z,8.20
2018-10-18T22:53:33.310Z,8.10
2018-10-18T22:56:03.346Z,8.10
2018-10-18T22:58:32.962Z,8.10
2018-10-18T23:01:02.194Z,8.10
2018-10-18T23:03:30.556Z,8.00
2018-10-18T23:05:58.963Z,8.00
2018-10-18T23:08:27.278Z,8.00
2018-10-18T23:10:55.764Z,8.00
2018-10-18T23:13:24.024Z,8.00
2018-10-18T23:15:52.811Z,7.90
2018-10-18T23:18:21.463Z,7.90
2018-10-18T23:20:50.275Z,7.90
2018-10-18T23:23:18.861Z,8.00
2018-10-18T23:25:47.104Z,8.00
2018-10-18T23:28:15.624Z,8.00
2018-10-18T23:30:44.297Z,8.00
2018-10-18T23:33:12.594Z,7.90
2018-10-18T23:35:41.790Z,8.00
2018-10-18T23:38:10.463Z,8.00
2018-10-18T23:40:38.812Z,8.00
2018-10-18T23:43:07.463Z,8.00
2018-10-18T23:45:38.367Z,7.90
2018-10-18T23:48:07.761Z,7.90
2018-10-18T23:50:36.713Z,7.90
2018-10-18T23:53:06.109Z,7.90
2018-10-18T23:55:34.856Z,7.90
2018-10-18T23:58:03.555Z,7.90
